Time;durP1;ratioP1;P1;durP2;ratioP2;P2;SDS_P1;SDS_P2;PMS_P1;PMS_P2;Temp;Humidity;BMP_temperature;BMP_pressure;BME280_temperature;BME280_humidity;BME280_pressure;Samples;Min_cycle;Max_cycle;Signal;HPM_P1;HPM_P2
2023/07/24 00:01:41;;;;;;;11.02;8.82;;;16.90;99.90;;;;;;7373689;19;20026;-65
2023/07/24 00:04:08;;;;;;;12.13;9.35;;;16.90;99.90;;;;;;7373167;19;20029;-56
2023/07/24 00:06:34;;;;;;;13.23;10.25;;;16.90;99.90;;;;;;7372310;19;20030;-56
2023/07/24 00:09:00;;;;;;;14.23;10.18;;;16.90;99.90;;;;;;7374004;19;20026;-56
2023/07/24 00:11:26;;;;;;;14.73;10.30;;;16.90;99.90;;;;;;7373394;19;20025;-65
2023/07/24 00:13:53;;;;;;;13.57;10.48;;;17.00;99.90;;;;;;7371555;19;20030;-65
2023/07/24 00:16:19;;;;;;;14.77;12.85;;;17.00;99.90;;;;;;7374573;19;20395;-56
2023/07/24 00:18:45;;;;;;;14.68;13.23;;;17.00;99.90;;;;;;7375448;19;20074;-56
2023/07/24 00:21:13;;;;;;;14.68;13.20;;;17.00;99.90;;;;;;7371451;19;20850;-57
2023/07/24 00:23:39;;;;;;;17.17;15.57;;;17.00;99.90;;;;;;7375268;19;20014;-57
2023/07/24 00:26:05;;;;;;;17.67;15.82;;;17.00;99.90;;;;;;7372725;19;20029;-65
2023/07/24 00:28:32;;;;;;;18.25;16.27;;;17.00;99.90;;;;;;7375707;19;20592;-65
2023/07/24 00:31:02;;;;;;;18.88;17.08;;;17.00;99.90;;;;;;7371689;19;20549;-65
2023/07/24 00:33:28;;;;;;;17.90;16.23;;;17.00;99.90;;;;;;7378226;19;20061;-65
2023/07/24 00:35:57;;;;;;;17.48;15.90;;;17.00;99.90;;;;;;7367865;19;20022;-65
2023/07/24 00:38:23;;;;;;;19.17;17.25;;;16.90;99.90;;;;;;7377631;19;20025;-65
2023/07/24 00:40:50;;;;;;;20.00;17.95;;;16.90;99.90;;;;;;7371705;19;20010;-65
2023/07/24 00:43:17;;;;;;;18.85;17.15;;;16.90;99.90;;;;;;7370745;19;20022;-65
2023/07/24 00:45:46;;;;;;;18.52;16.73;;;16.90;99.90;;;;;;7375055;19;20047;-65
2023/07/24 00:48:15;;;;;;;18.95;17.15;;;16.80;99.90;;;;;;7373976;19;20082;-65
2023/07/24 00:50:44;;;;;;;21.25;18.63;;;16.90;99.90;;;;;;7372820;19;20018;-65
2023/07/24 00:53:13;;;;;;;18.92;17.13;;;16.80;99.90;;;;;;7369865;19;20022;-57
2023/07/24 00:55:40;;;;;;;21.52;19.10;;;16.80;99.90;;;;;;7373396;19;20025;-56
2023/07/24 00:58:07;;;;;;;20.10;18.30;;;16.70;99.90;;;;;;7373996;19;20026;-64
2023/07/24 01:00:33;;;;;;;21.08;19.05;;;16.60;99.90;;;;;;7371092;19;20478;-56
2023/07/24 01:03:00;;;;;;;20.13;18.13;;;16.60;99.90;;;;;;7367188;19;21075;-57
2023/07/24 01:05:26;;;;;;;21.27;19.33;;;16.60;99.90;;;;;;7370574;19;20018;-56
2023/07/24 01:07:52;;;;;;;21.02;19.02;;;16.50;99.90;;;;;;7373565;19;20090;-65
2023/07/24 01:10:18;;;;;;;21.02;18.75;;;16.50;99.90;;;;;;7370009;19;20049;-65
2023/07/24 01:13:09;;;;;;;19.52;17.83;;;16.50;99.90;;;;;;7366465;19;20030;-65
2023/07/24 01:15:40;;;;;;;19.50;17.70;;;16.50;99.90;;;;;;7366231;19;20501;-65
2023/07/24 01:18:09;;;;;;;20.70;18.80;;;16.50;99.90;;;;;;7367658;19;20019;-65
2023/07/24 01:20:43;;;;;;;20.00;18.20;;;16.50;99.90;;;;;;7370366;19;20018;-65
2023/07/24 01:23:28;;;;;;;20.17;18.33;;;16.40;99.90;;;;;;7369183;19;20021;-65
2023/07/24 01:25:59;;;;;;;20.00;18.08;;;16.40;99.90;;;;;;7367298;19;20025;-65
2023/07/24 01:28:26;;;;;;;18.65;16.95;;;16.40;99.90;;;;;;7368292;19;20052;-65
2023/07/24 01:30:53;;;;;;;19.33;17.42;;;16.30;99.90;;;;;;7370515;19;20015;-65
2023/07/24 01:33:20;;;;;;;19.25;17.35;;;16.30;99.90;;;;;;7367163;19;20940;-65
2023/07/24 01:35:50;;;;;;;20.98;18.27;;;16.20;99.90;;;;;;7362448;19;20018;-65
2023/07/24 01:38:17;;;;;;;20.42;18.42;;;16.20;99.90;;;;;;7369374;19;20026;-65
2023/07/24 01:40:45;;;;;;;20.00;18.10;;;16.20;99.90;;;;;;7367641;19;20031;-65
2023/07/24 01:43:14;;;;;;;21.15;19.08;;;16.20;99.90;;;;;;7366509;19;20021;-65
2023/07/24 01:45:40;;;;;;;19.15;17.35;;;16.30;99.90;;;;;;7366608;19;20163;-56
2023/07/24 01:48:06;;;;;;;20.80;18.65;;;16.30;99.90;;;;;;7367881;19;20037;-56
2023/07/24 01:50:33;;;;;;;20.20;18.17;;;16.30;99.90;;;;;;7367851;19;20035;-57
2023/07/24 01:52:59;;;;;;;20.95;18.75;;;16.30;99.90;;;;;;7368717;19;20063;-57
2023/07/24 01:55:26;;;;;;;19.25;17.45;;;16.40;99.90;;;;;;7367408;19;20029;-56
2023/07/24 01:57:52;;;;;;;17.80;15.98;;;16.40;99.90;;;;;;7368428;19;20022;-56
2023/07/24 02:00:18;;;;;;;18.88;17.08;;;16.40;99.90;;;;;;7371279;19;20019;-65
2023/07/24 02:02:45;;;;;;;20.33;18.25;;;16.40;99.90;;;;;;7371795;19;20030;-66
2023/07/24 02:05:12;;;;;;;18.58;16.70;;;16.40;99.90;;;;;;7367127;19;20856;-65
2023/07/24 02:07:38;;;;;;;18.38;16.58;;;16.40;99.90;;;;;;7366145;19;20023;-65
2023/07/24 02:10:05;;;;;;;18.75;16.75;;;16.40;99.90;;;;;;7367439;19;20018;-65
2023/07/24 02:12:31;;;;;;;17.48;15.68;;;16.40;99.90;;;;;;7367280;19;20022;-56
2023/07/24 02:14:57;;;;;;;17.98;16.27;;;16.30;99.90;;;;;;7367586;19;20056;-64
2023/07/24 02:17:24;;;;;;;17.42;15.93;;;16.30;99.90;;;;;;7371135;19;20150;-65
2023/07/24 02:19:50;;;;;;;16.27;14.57;;;16.30;99.90;;;;;;7364039;19;20048;-56
2023/07/24 02:22:16;;;;;;;18.42;16.63;;;16.30;99.90;;;;;;7368244;19;20019;-56
2023/07/24 02:24:43;;;;;;;18.98;16.95;;;16.20;99.90;;;;;;7367305;19;20057;-56
2023/07/24 02:27:13;;;;;;;17.23;15.55;;;16.20;99.90;;;;;;7364198;19;20036;-57
2023/07/24 02:29:39;;;;;;;18.25;16.20;;;16.20;99.90;;;;;;7367949;19;20022;-57
2023/07/24 02:32:06;;;;;;;18.60;16.00;;;16.20;99.90;;;;;;7367969;19;20062;-57
2023/07/24 02:34:32;;;;;;;18.20;16.00;;;16.30;99.90;;;;;;7364364;19;20018;-56
2023/07/24 02:36:58;;;;;;;18.10;16.30;;;16.30;99.90;;;;;;7366983;19;20041;-56
2023/07/24 02:39:28;;;;;;;16.83;15.13;;;16.30;99.90;;;;;;7375736;19;20019;-56
2023/07/24 02:41:54;;;;;;;16.42;14.73;;;16.30;99.90;;;;;;7375824;19;20026;-56
2023/07/24 02:44:21;;;;;;;17.88;14.68;;;16.30;99.90;;;;;;7375768;19;20049;-56
2023/07/24 02:46:47;;;;;;;15.52;13.90;;;16.40;99.90;;;;;;7372580;19;20034;-56
2023/07/24 02:49:13;;;;;;;18.05;15.23;;;16.40;99.90;;;;;;7373724;19;20033;-56
2023/07/24 02:51:39;;;;;;;15.60;13.77;;;16.40;99.90;;;;;;7370710;19;20501;-56
2023/07/24 02:54:06;;;;;;;16.45;14.43;;;16.40;99.90;;;;;;7375828;19;20821;-56
2023/07/24 02:56:32;;;;;;;15.95;14.25;;;16.50;99.90;;;;;;7371881;19;20026;-65
2023/07/24 02:58:58;;;;;;;15.90;14.27;;;16.50;99.90;;;;;;7368462;19;20011;-56
2023/07/24 03:01:25;;;;;;;15.60;13.65;;;16.50;99.90;;;;;;7372445;19;22045;-56
2023/07/24 03:03:51;;;;;;;15.40;13.77;;;16.60;99.90;;;;;;7375395;19;20022;-65
2023/07/24 03:06:18;;;;;;;16.15;14.50;;;16.60;99.90;;;;;;7371891;19;20089;-65
2023/07/24 03:08:44;;;;;;;15.25;13.40;;;16.60;99.90;;;;;;7375471;19;20022;-56
2023/07/24 03:11:10;;;;;;;15.57;13.98;;;16.60;99.90;;;;;;7373358;19;20019;-57
2023/07/24 03:13:36;;;;;;;14.30;12.77;;;16.60;99.90;;;;;;7372862;19;20114;-57
2023/07/24 03:16:03;;;;;;;15.20;13.65;;;16.50;99.90;;;;;;7373638;19;20022;-65
2023/07/24 03:18:32;;;;;;;14.07;12.57;;;16.50;99.90;;;;;;7376933;19;20019;-65
2023/07/24 03:21:01;;;;;;;14.88;13.38;;;16.40;99.90;;;;;;7370841;19;20023;-66
2023/07/24 03:23:29;;;;;;;15.48;13.65;;;16.40;99.90;;;;;;7374807;19;20078;-67
2023/07/24 03:25:56;;;;;;;15.20;13.65;;;16.40;99.90;;;;;;7371927;19;20029;-64
2023/07/24 03:28:22;;;;;;;15.27;13.70;;;16.40;99.90;;;;;;7371435;19;20109;-65
2023/07/24 03:30:48;;;;;;;15.63;13.90;;;16.30;99.90;;;;;;7371570;19;20010;-66
2023/07/24 03:33:14;;;;;;;14.60;13.10;;;16.30;99.90;;;;;;7371209;19;20023;-65
2023/07/24 03:35:41;;;;;;;16.63;14.90;;;16.30;99.90;;;;;;7373959;19;20018;-65
2023/07/24 03:38:07;;;;;;;16.17;14.40;;;16.30;99.90;;;;;;7370463;19;20022;-65
2023/07/24 03:40:33;;;;;;;16.13;14.43;;;16.30;99.90;;;;;;7374303;19;20018;-65
2023/07/24 03:43:00;;;;;;;16.50;14.38;;;16.20;99.90;;;;;;7374315;19;20022;-56
2023/07/24 03:45:27;;;;;;;14.80;13.32;;;16.30;99.90;;;;;;7376438;19;20047;-56
2023/07/24 03:47:53;;;;;;;16.83;14.48;;;16.30;99.90;;;;;;7371823;19;20480;-56
2023/07/24 03:50:19;;;;;;;17.15;14.50;;;16.30;99.90;;;;;;7375543;19;20026;-56
2023/07/24 03:52:46;;;;;;;17.27;14.82;;;16.30;99.90;;;;;;7368116;19;20018;-56
2023/07/24 03:55:12;;;;;;;16.33;14.63;;;16.30;99.90;;;;;;7375015;19;20025;-57
2023/07/24 03:57:38;;;;;;;15.90;14.20;;;16.30;99.90;;;;;;7374835;19;20022;-56
2023/07/24 04:00:06;;;;;;;16.70;15.00;;;16.30;99.90;;;;;;7374823;19;20046;-56
2023/07/24 04:02:39;;;;;;;17.30;15.48;;;16.30;99.90;;;;;;7369311;19;20022;-57
2023/07/24 04:05:05;;;;;;;15.65;14.10;;;16.30;99.90;;;;;;7371386;19;20043;-56
2023/07/24 04:07:32;;;;;;;15.27;13.77;;;16.30;99.90;;;;;;7372882;19;20019;-66
2023/07/24 04:09:58;;;;;;;15.30;13.52;;;16.30;99.90;;;;;;7375172;19;20014;-57
2023/07/24 04:12:24;;;;;;;14.75;13.13;;;16.40;99.90;;;;;;7371089;19;20493;-57
2023/07/24 04:14:50;;;;;;;14.57;13.18;;;16.40;99.90;;;;;;7373691;19;20025;-58
2023/07/24 04:17:17;;;;;;;16.35;14.07;;;16.40;99.90;;;;;;7374211;19;20023;-56
2023/07/24 04:19:43;;;;;;;16.02;14.38;;;16.50;99.90;;;;;;7372492;19;20082;-57
2023/07/24 04:22:09;;;;;;;17.95;14.45;;;16.50;99.90;;;;;;7373518;19;20018;-57
2023/07/24 04:24:35;;;;;;;15.98;13.68;;;16.50;99.90;;;;;;7371204;19;20014;-66
2023/07/24 04:27:02;;;;;;;15.38;13.88;;;16.50;99.90;;;;;;7371421;19;20029;-65
2023/07/24 04:29:28;;;;;;;17.00;15.40;;;16.50;99.90;;;;;;7373522;19;20474;-66
2023/07/24 04:31:55;;;;;;;16.00;14.32;;;16.50;99.90;;;;;;7374756;19;20026;-57
2023/07/24 04:34:21;;;;;;;17.05;15.23;;;16.50;99.90;;;;;;7369325;19;20007;-56
2023/07/24 04:36:47;;;;;;;17.38;15.55;;;16.50;99.90;;;;;;7373002;19;20086;-56
2023/07/24 04:39:13;;;;;;;16.33;14.82;;;16.50;99.90;;;;;;7369562;19;20604;-65
2023/07/24 04:41:40;;;;;;;16.23;14.73;;;16.50;99.90;;;;;;7372266;19;20816;-65
2023/07/24 04:44:06;;;;;;;16.85;15.18;;;16.50;99.90;;;;;;7369091;19;20094;-58
2023/07/24 04:46:33;;;;;;;17.02;15.23;;;16.50;99.90;;;;;;7369293;19;20018;-57
2023/07/24 04:49:00;;;;;;;17.38;15.70;;;16.50;99.90;;;;;;7371575;19;20070;-59
2023/07/24 04:51:26;;;;;;;17.45;15.75;;;16.40;99.90;;;;;;7373935;19;20018;-57
2023/07/24 04:53:54;;;;;;;15.63;14.10;;;16.40;99.90;;;;;;7373462;19;20022;-57
2023/07/24 04:56:20;;;;;;;17.42;15.20;;;16.40;99.90;;;;;;7370182;19;20027;-56
2023/07/24 04:58:46;;;;;;;16.50;14.90;;;16.50;99.90;;;;;;7373603;19;20029;-57
2023/07/24 05:01:12;;;;;;;16.55;15.05;;;16.40;99.90;;;;;;7372734;19;20014;-58
2023/07/24 05:03:38;;;;;;;17.23;15.38;;;16.50;99.90;;;;;;7371807;19;20078;-58
2023/07/24 05:06:04;;;;;;;17.00;15.40;;;16.50;99.90;;;;;;7369066;19;20022;-58
2023/07/24 05:08:31;;;;;;;18.55;16.73;;;16.50;99.90;;;;;;7370276;19;20019;-57
2023/07/24 05:10:58;;;;;;;16.75;15.13;;;16.50;99.90;;;;;;7368318;19;20014;-56
2023/07/24 05:13:26;;;;;;;16.58;15.00;;;16.50;99.90;;;;;;7374735;19;20018;-67
2023/07/24 05:15:52;;;;;;;16.30;14.60;;;16.50;99.90;;;;;;7372082;19;20018;-67
2023/07/24 05:18:19;;;;;;;17.25;15.65;;;16.60;99.90;;;;;;7370356;19;20022;-67
2023/07/24 05:20:51;;;;;;;16.75;15.07;;;16.60;99.90;;;;;;7370353;19;20018;-57
2023/07/24 05:23:17;;;;;;;16.35;14.75;;;16.60;99.90;;;;;;7371562;19;20026;-58
2023/07/24 05:25:43;;;;;;;16.70;14.85;;;16.60;99.90;;;;;;7371607;19;20485;-65
2023/07/24 05:28:10;;;;;;;16.83;15.13;;;16.70;99.90;;;;;;7372653;19;21793;-57
2023/07/24 05:30:36;;;;;;;15.85;14.25;;;16.80;99.90;;;;;;7371530;19;20018;-56
2023/07/24 05:33:02;;;;;;;16.23;13.85;;;16.90;99.90;;;;;;7374380;19;20020;-56
2023/07/24 05:35:29;;;;;;;16.17;14.68;;;16.90;99.90;;;;;;7372577;19;20018;-68
2023/07/24 05:37:57;;;;;;;16.10;14.48;;;16.90;99.90;;;;;;7369760;19;20121;-67
2023/07/24 05:40:24;;;;;;;16.48;14.57;;;17.00;99.90;;;;;;7372711;19;20042;-66
2023/07/24 05:42:50;;;;;;;15.98;14.48;;;17.10;99.90;;;;;;7370613;19;20628;-66
2023/07/24 05:45:16;;;;;;;15.73;14.18;;;17.20;99.90;;;;;;7369057;19;20395;-67
2023/07/24 05:47:43;;;;;;;15.40;13.88;;;17.20;99.90;;;;;;7368246;19;20500;-57
2023/07/24 05:50:10;;;;;;;16.67;15.00;;;17.30;99.90;;;;;;7373842;19;20015;-57
2023/07/24 05:52:36;;;;;;;14.90;13.52;;;17.30;99.90;;;;;;7370370;19;20018;-66
2023/07/24 05:55:03;;;;;;;14.65;13.35;;;17.30;99.90;;;;;;7371034;19;20034;-66
2023/07/24 05:57:29;;;;;;;15.60;14.15;;;17.30;99.90;;;;;;7366019;19;20113;-57
2023/07/24 05:59:59;;;;;;;16.23;14.73;;;17.40;99.90;;;;;;7367610;19;20038;-57
2023/07/24 06:02:25;;;;;;;14.40;12.95;;;17.40;99.90;;;;;;7375428;19;20518;-57
2023/07/24 06:04:52;;;;;;;15.60;14.07;;;17.40;99.90;;;;;;7372729;19;20028;-59
2023/07/24 06:07:18;;;;;;;16.13;14.52;;;17.30;99.90;;;;;;7370667;19;20775;-67
2023/07/24 06:09:44;;;;;;;15.63;13.82;;;17.40;99.90;;;;;;7369315;19;20761;-67
2023/07/24 06:12:10;;;;;;;14.77;13.38;;;17.40;99.90;;;;;;7371988;19;20067;-67
2023/07/24 06:14:36;;;;;;;15.60;14.10;;;17.30;99.90;;;;;;7378368;19;20025;-68
2023/07/24 06:17:03;;;;;;;14.95;13.45;;;17.30;99.90;;;;;;7380769;19;20663;-67
2023/07/24 06:19:29;;;;;;;15.88;14.05;;;17.30;99.90;;;;;;7379554;19;20018;-67
2023/07/24 06:21:56;;;;;;;15.30;13.90;;;17.30;99.90;;;;;;7375959;19;20704;-66
2023/07/24 06:24:23;;;;;;;15.38;13.88;;;17.30;99.90;;;;;;7377512;19;20513;-57
2023/07/24 06:26:50;;;;;;;15.65;13.68;;;17.50;99.90;;;;;;7380451;19;20549;-67
2023/07/24 06:29:16;;;;;;;14.25;12.75;;;17.70;99.90;;;;;;7377942;19;20048;-67
2023/07/24 06:31:43;;;;;;;14.85;13.35;;;17.90;99.90;;;;;;7376029;19;20018;-67
2023/07/24 06:34:09;;;;;;;14.13;12.70;;;18.10;99.90;;;;;;7375525;19;20114;-67
2023/07/24 06:36:35;;;;;;;14.00;12.70;;;18.20;99.90;;;;;;7374349;19;20022;-58
2023/07/24 06:39:01;;;;;;;14.27;13.07;;;18.30;99.90;;;;;;7372364;19;20022;-57
2023/07/24 06:41:28;;;;;;;13.40;12.00;;;18.40;99.90;;;;;;7378418;19;20106;-57
2023/07/24 06:43:54;;;;;;;13.13;11.73;;;18.50;99.90;;;;;;7377336;19;20435;-68
2023/07/24 06:46:20;;;;;;;12.65;11.45;;;18.80;99.90;;;;;;7379192;19;20022;-57
2023/07/24 06:48:47;;;;;;;13.98;10.95;;;18.90;99.90;;;;;;7375785;19;20021;-57
2023/07/24 06:51:13;;;;;;;13.02;10.57;;;19.30;99.90;;;;;;7377756;19;20019;-57
2023/07/24 06:53:40;;;;;;;11.63;10.43;;;19.50;99.90;;;;;;7379400;19;20022;-57
2023/07/24 06:56:06;;;;;;;11.93;10.70;;;19.90;99.90;;;;;;7380585;19;20641;-67
2023/07/24 06:58:33;;;;;;;12.35;10.48;;;19.80;99.90;;;;;;7376436;19;20032;-57
2023/07/24 07:01:00;;;;;;;11.20;10.02;;;19.70;99.90;;;;;;7374367;19;20022;-67
2023/07/24 07:03:26;;;;;;;10.75;9.48;;;19.60;99.90;;;;;;7375780;19;20499;-67
2023/07/24 07:05:59;;;;;;;12.50;10.05;;;19.40;99.90;;;;;;7373020;19;20095;-67
2023/07/24 07:08:27;;;;;;;12.40;9.10;;;19.40;99.90;;;;;;7375494;19;20484;-67
2023/07/24 07:11:00;;;;;;;11.00;8.80;;;19.10;99.90;;;;;;7374559;19;20027;-68
2023/07/24 07:13:27;;;;;;;11.65;9.05;;;19.10;99.90;;;;;;7377186;19;20014;-67
2023/07/24 07:15:53;;;;;;;13.02;9.38;;;19.00;99.90;;;;;;7375234;19;20019;-68
2023/07/24 07:18:20;;;;;;;15.57;9.98;;;19.00;99.90;;;;;;7376695;19;20442;-68
2023/07/24 07:20:47;;;;;;;12.98;9.07;;;19.00;99.90;;;;;;7373413;19;20018;-57
2023/07/24 07:23:13;;;;;;;12.50;9.18;;;19.00;99.90;;;;;;7377229;19;20014;-57
2023/07/24 07:25:40;;;;;;;11.07;8.95;;;19.10;99.90;;;;;;7377474;19;20018;-57
2023/07/24 07:28:06;;;;;;;10.75;9.30;;;19.10;99.90;;;;;;7377031;19;20078;-58
2023/07/24 07:30:32;;;;;;;12.68;9.15;;;19.20;99.90;;;;;;7374890;19;20018;-67
2023/07/24 07:32:58;;;;;;;12.63;9.23;;;19.10;99.90;;;;;;7372830;19;20025;-67
2023/07/24 07:35:25;;;;;;;14.32;9.68;;;19.30;99.90;;;;;;7377525;19;20022;-67
2023/07/24 07:37:51;;;;;;;11.68;8.50;;;19.30;99.90;;;;;;7376064;19;21119;-58
2023/07/24 07:40:18;;;;;;;11.57;8.95;;;19.30;99.90;;;;;;7374748;19;20025;-57
2023/07/24 07:42:45;;;;;;;14.18;9.48;;;19.30;99.90;;;;;;7373991;19;20018;-58
2023/07/24 07:45:11;;;;;;;14.35;9.60;;;19.30;99.90;;;;;;7375848;19;20402;-57
2023/07/24 07:47:37;;;;;;;16.00;12.45;;;19.30;99.90;;;;;;7374964;19;20014;-57
2023/07/24 07:50:05;;;;;;;11.93;9.32;;;19.50;99.90;;;;;;7375796;19;20086;-57
2023/07/24 07:52:31;;;;;;;14.38;9.85;;;19.50;99.90;;;;;;7370334;19;20029;-57
2023/07/24 07:54:57;;;;;;;12.52;9.27;;;19.60;99.90;;;;;;7376805;19;21896;-56
2023/07/24 07:57:23;;;;;;;11.50;8.90;;;19.60;99.90;;;;;;7372273;19;20028;-57
2023/07/24 07:59:50;;;;;;;14.45;9.57;;;19.60;99.90;;;;;;7375836;19;20104;-57
2023/07/24 08:02:16;;;;;;;11.02;9.38;;;19.60;99.90;;;;;;7374705;19;20149;-57
2023/07/24 08:04:42;;;;;;;10.43;7.57;;;19.70;99.90;;;;;;7378208;19;20019;-68
2023/07/24 08:07:08;;;;;;;13.40;8.55;;;19.80;99.90;;;;;;7373627;19;20022;-68
2023/07/24 08:09:37;;;;;;;13.82;9.43;;;19.70;99.90;;;;;;7377322;19;20026;-68
2023/07/24 08:12:04;;;;;;;12.07;8.93;;;19.70;99.90;;;;;;7375664;19;20014;-57
2023/07/24 08:14:31;;;;;;;11.80;9.18;;;19.70;99.90;;;;;;7375111;19;20019;-58
2023/07/24 08:16:57;;;;;;;13.18;8.00;;;19.80;99.90;;;;;;7376018;19;20580;-68
2023/07/24 08:19:27;;;;;;;12.27;8.55;;;19.90;99.90;;;;;;7373144;19;20014;-58
2023/07/24 08:21:54;;;;;;;15.50;8.60;;;19.90;99.90;;;;;;7377326;19;20019;-58
2023/07/24 08:24:21;;;;;;;11.40;8.65;;;19.90;99.90;;;;;;7377611;19;20533;-57
2023/07/24 08:26:47;;;;;;;14.90;8.45;;;20.00;99.90;;;;;;7378314;19;20395;-68
2023/07/24 08:29:13;;;;;;;11.45;8.30;;;20.10;99.90;;;;;;7372329;19;20023;-67
2023/07/24 08:31:39;;;;;;;10.95;8.10;;;20.20;99.90;;;;;;7372226;19;20029;-67
2023/07/24 08:34:06;;;;;;;12.88;8.80;;;20.30;99.90;;;;;;7372130;19;20074;-68
2023/07/24 08:36:32;;;;;;;12.45;9.02;;;20.60;99.90;;;;;;7374518;19;20014;-68
2023/07/24 08:39:18;;;;;;;11.73;8.75;;;21.00;99.90;;;;;;7372827;19;20031;-68
2023/07/24 08:41:44;;;;;;;15.13;8.82;;;21.20;99.90;;;;;;7372901;19;20097;-59
2023/07/24 08:44:11;;;;;;;10.77;8.10;;;21.10;99.90;;;;;;7372605;19;20082;-66
2023/07/24 08:46:41;;;;;;;11.40;8.13;;;21.20;99.90;;;;;;7373237;19;20745;-67
2023/07/24 08:49:12;;;;;;;11.98;8.75;;;21.30;99.90;;;;;;7374252;19;20058;-67
2023/07/24 08:51:42;;;;;;;11.95;8.70;;;21.10;99.90;;;;;;7368282;19;20022;-67
2023/07/24 08:54:09;;;;;;;13.23;9.18;;;21.20;99.90;;;;;;7371625;19;20054;-58
2023/07/24 08:56:37;;;;;;;12.30;8.30;;;21.50;99.90;;;;;;7372551;19;20837;-66
2023/07/24 08:59:03;;;;;;;11.75;8.77;;;21.60;99.90;;;;;;7370441;19;20026;-67
2023/07/24 09:01:30;;;;;;;13.35;8.50;;;21.70;99.90;;;;;;7373153;19;20101;-58
2023/07/24 09:03:56;;;;;;;13.57;8.40;;;21.70;99.90;;;;;;7373079;19;20811;-58
2023/07/24 09:06:23;;;;;;;13.27;8.50;;;21.60;99.90;;;;;;7370627;19;20027;-67
2023/07/24 09:08:53;;;;;;;10.80;7.97;;;21.60;99.90;;;;;;7369938;19;20014;-67
2023/07/24 09:11:52;;;;;;;10.40;7.32;;;21.50;99.90;;;;;;7371315;19;20021;-68
2023/07/24 09:14:26;;;;;;;12.68;7.43;;;21.90;99.90;;;;;;7374232;19;20134;-58
2023/07/24 09:17:08;;;;;;;10.43;7.68;;;22.10;99.90;;;;;;7371717;19;20038;-67
2023/07/24 09:19:58;;;;;;;11.43;7.70;;;22.40;99.90;;;;;;7373960;19;20078;-57
2023/07/24 09:22:27;;;;;;;8.88;6.63;;;22.30;99.90;;;;;;7372528;19;20529;-66
2023/07/24 09:24:55;;;;;;;11.05;7.07;;;22.20;99.90;;;;;;7371501;19;20019;-57
2023/07/24 09:27:26;;;;;;;11.27;7.47;;;21.90;99.90;;;;;;7372694;19;20019;-66
2023/07/24 09:29:52;;;;;;;11.85;8.43;;;21.80;99.90;;;;;;7371386;19;20014;-66
2023/07/24 09:32:23;;;;;;;11.55;7.07;;;21.60;99.90;;;;;;7368554;19;20026;-67
2023/07/24 09:34:55;;;;;;;11.13;8.90;;;22.30;99.90;;;;;;7369903;19;20018;-66
2023/07/24 09:37:31;;;;;;;12.48;7.97;;;22.90;99.90;;;;;;7369078;19;20053;-66
2023/07/24 09:39:57;;;;;;;11.82;6.43;;;23.60;99.90;;;;;;7369747;19;20023;-66
2023/07/24 09:42:42;;;;;;;9.45;7.43;;;24.10;99.90;;;;;;7370626;19;20480;-66
2023/07/24 09:45:09;;;;;;;11.20;6.45;;;24.20;99.90;;;;;;7371218;19;20022;-66
2023/07/24 09:47:36;;;;;;;10.15;6.60;;;24.30;99.90;;;;;;7372705;19;20089;-67
2023/07/24 09:50:06;;;;;;;9.50;5.85;;;24.50;99.90;;;;;;7378301;19;20030;-66
2023/07/24 09:52:54;;;;;;;;;;;24.90;99.90;;;;;;7371480;19;20468;-58
2023/07/24 09:55:29;;;;;;;10.73;5.80;;;23.80;99.90;;;;;;7377316;19;20488;-56
2023/07/24 09:57:58;;;;;;;7.13;5.10;;;24.10;99.90;;;;;;7378555;19;20608;-57
2023/07/24 10:00:25;;;;;;;9.05;5.97;;;24.20;99.90;;;;;;7377127;19;20018;-57
2023/07/24 10:02:52;;;;;;;8.70;6.07;;;24.20;99.90;;;;;;7373918;19;20031;-57
2023/07/24 10:05:19;;;;;;;12.05;6.80;;;24.00;99.90;;;;;;7378773;19;20026;-58
2023/07/24 10:07:46;;;;;;;8.90;5.65;;;23.80;99.90;;;;;;7377473;19;20737;-58
2023/07/24 10:10:13;;;;;;;10.32;5.85;;;23.80;99.90;;;;;;7381617;19;20612;-58
2023/07/24 10:12:40;;;;;;;10.25;6.10;;;24.20;99.90;;;;;;7372314;19;20022;-57
2023/07/24 10:15:07;;;;;;;10.23;6.00;;;24.40;99.90;;;;;;7376221;19;20027;-58
2023/07/24 10:17:41;;;;;;;7.97;5.68;;;24.90;99.90;;;;;;7378442;19;20050;-58
2023/07/24 10:20:09;;;;;;;9.02;6.75;;;25.00;99.90;;;;;;7378056;19;20018;-66
2023/07/24 10:22:41;;;;;;;7.72;5.40;;;24.80;99.90;;;;;;7372620;19;20015;-66
2023/07/24 10:25:08;;;;;;;8.73;4.72;;;25.00;99.90;;;;;;7378488;19;20026;-66
2023/07/24 10:27:46;;;;;;;8.45;5.28;;;25.10;99.90;;;;;;7379276;19;20121;-58
2023/07/24 10:30:13;;;;;;;7.88;5.57;;;25.50;99.90;;;;;;7379129;19;20034;-58
2023/07/24 10:32:49;;;;;;;8.35;6.18;;;25.20;99.90;;;;;;7374402;19;20074;-57
2023/07/24 10:35:17;;;;;;;9.02;5.93;;;25.10;99.90;;;;;;7373605;19;20425;-58
2023/07/24 10:37:44;;;;;;;9.15;6.15;;;25.30;99.90;;;;;;7375109;19;20022;-58
2023/07/24 10:40:30;;;;;;;7.95;6.03;;;25.50;99.90;;;;;;7377776;19;20383;-57
2023/07/24 10:43:08;;;;;;;11.85;7.25;;;25.40;99.90;;;;;;7378034;19;20852;-58
2023/07/24 10:45:48;;;;;;;8.60;6.00;;;25.00;99.90;;;;;;7378014;19;20026;-58
2023/07/24 10:48:19;;;;;;;8.75;5.65;;;25.10;99.90;;;;;;7379527;19;20018;-58
2023/07/24 10:50:47;;;;;;;8.55;5.78;;;25.20;99.90;;;;;;7377920;19;20049;-66
2023/07/24 10:53:17;;;;;;;9.93;6.55;;;25.60;99.90;;;;;;7373299;19;20884;-66
2023/07/24 10:55:44;;;;;;;13.20;6.13;;;25.10;99.90;;;;;;7376855;19;20045;-57
2023/07/24 10:58:11;;;;;;;8.20;4.93;;;24.70;99.90;;;;;;7373829;19;20010;-56
2023/07/24 11:00:42;;;;;;;8.07;4.75;;;24.30;99.90;;;;;;7377461;19;20751;-57
2023/07/24 11:03:10;;;;;;;9.13;5.70;;;24.20;99.90;;;;;;7375627;19;20015;-56
2023/07/24 11:05:44;;;;;;;9.38;6.45;;;24.10;99.90;;;;;;7378604;19;20100;-57
2023/07/24 11:08:15;;;;;;;10.93;7.13;;;24.40;99.90;;;;;;7373283;19;20025;-66
2023/07/24 11:11:01;;;;;;;10.73;5.85;;;24.20;99.90;;;;;;7375106;19;20029;-66
2023/07/24 11:13:28;;;;;;;10.65;5.60;;;24.60;99.90;;;;;;7375467;19;20018;-66
2023/07/24 11:15:55;;;;;;;95.65;86.38;;;24.60;99.90;;;;;;7375109;19;20018;-64
2023/07/24 11:18:26;;;;;;;17.88;14.85;;;25.00;99.90;;;;;;7382947;19;20010;-64
2023/07/24 11:20:55;;;;;;;21.23;19.00;;;25.20;99.90;;;;;;7384428;19;20014;-64
2023/07/24 11:23:24;;;;;;;26.08;23.30;;;25.20;99.90;;;;;;7380486;19;21201;-63
2023/07/24 11:25:53;;;;;;;10.23;6.15;;;25.00;99.90;;;;;;7383906;19;20026;-63
2023/07/24 11:28:19;;;;;;;16.88;14.20;;;24.80;99.90;;;;;;7381189;19;20026;-59
2023/07/24 11:30:46;;;;;;;16.02;13.98;;;24.90;99.90;;;;;;7379538;19;20090;-59
2023/07/24 11:33:16;;;;;;;8.93;6.35;;;24.70;99.90;;;;;;7377230;19;20029;-61
2023/07/24 11:35:42;;;;;;;8.57;6.15;;;24.70;99.90;;;;;;7381045;19;20025;-64
2023/07/24 11:38:10;;;;;;;9.77;6.57;;;24.70;99.90;;;;;;7380893;19;20050;-65
2023/07/24 11:40:40;;;;;;;17.50;13.98;;;24.50;99.90;;;;;;7379686;19;20007;-60
2023/07/24 11:43:24;;;;;;;20.87;18.77;;;24.20;99.90;;;;;;7381618;19;20029;-64
2023/07/24 11:45:53;;;;;;;8.77;6.38;;;24.00;99.90;;;;;;7382731;19;20039;-64
2023/07/24 11:48:21;;;;;;;9.40;6.18;;;23.70;99.90;;;;;;7383773;19;20036;-63
2023/07/24 11:50:54;;;;;;;9.90;7.30;;;23.60;99.90;;;;;;7380813;19;20756;-60
2023/07/24 11:53:25;;;;;;;9.85;7.40;;;23.70;99.90;;;;;;7378294;19;20014;-60
2023/07/24 11:55:52;;;;;;;19.35;14.98;;;23.80;99.90;;;;;;7370274;19;20144;-60
2023/07/24 11:58:20;;;;;;;11.65;8.55;;;24.20;99.90;;;;;;7374500;19;20014;-60
2023/07/24 12:00:47;;;;;;;12.43;8.57;;;24.30;99.90;;;;;;7374266;19;20014;-60
2023/07/24 12:03:25;;;;;;;12.32;8.27;;;24.30;99.90;;;;;;7379215;19;20505;-66
2023/07/24 12:05:52;;;;;;;9.38;6.88;;;24.60;99.90;;;;;;7369417;19;20030;-60
2023/07/24 12:08:29;;;;;;;14.68;9.25;;;24.90;99.90;;;;;;7377849;19;20014;-61
2023/07/24 12:10:56;;;;;;;11.27;8.60;;;25.20;99.90;;;;;;7372215;19;20074;-58
2023/07/24 12:13:22;;;;;;;8.27;6.15;;;25.10;99.90;;;;;;7377583;19;20081;-64
2023/07/24 12:15:49;;;;;;;10.82;6.50;;;25.10;99.90;;;;;;7376744;19;20015;-65
2023/07/24 12:18:15;;;;;;;9.52;5.80;;;24.80;99.90;;;;;;7376933;19;20022;-65
2023/07/24 12:20:41;;;;;;;7.30;5.32;;;24.80;99.90;;;;;;7380854;19;20100;-65
2023/07/24 12:23:08;;;;;;;8.55;5.93;;;24.80;99.90;;;;;;7379875;19;20029;-66
2023/07/24 12:25:34;;;;;;;7.88;5.75;;;24.70;99.90;;;;;;7381680;19;20019;-66
2023/07/24 12:28:00;;;;;;;10.93;6.30;;;24.80;99.90;;;;;;7379265;19;20025;-66
2023/07/24 12:30:27;;;;;;;9.45;5.43;;;25.10;99.90;;;;;;7374824;19;20501;-65
2023/07/24 12:32:53;;;;;;;9.88;5.15;;;24.90;99.90;;;;;;7375903;19;20023;-70
2023/07/24 12:35:19;;;;;;;11.07;5.72;;;24.40;99.90;;;;;;7374078;19;20034;-69
2023/07/24 12:37:46;;;;;;;6.80;4.88;;;24.40;99.90;;;;;;7376835;19;20670;-65